createdAt,value
2022-10-28T00:03:10.477Z,5.34
2022-10-28T00:08:12.712Z,5.08
2022-10-28T00:13:14.720Z,5.16
2022-10-28T00:18:16.745Z,5.14
2022-10-28T00:23:18.893Z,5.14
2022-10-28T00:28:21.085Z,5.17
2022-10-28T00:33:23.162Z,5.24
2022-10-28T00:38:25.181Z,5.23
2022-10-28T00:43:38.053Z,5.28
2022-10-28T00:48:43.518Z,4.92
2022-10-28T00:53:48.521Z,4.89
2022-10-28T00:58:53.464Z,4.79
2022-10-28T01:03:57.422Z,4.83
2022-10-28T01:09:00.255Z,4.45
2022-10-28T01:14:23.817Z,4.80
2022-10-28T01:20:00.034Z,4.96
2022-10-28T01:25:27.361Z,4.93
2022-10-28T01:30:54.797Z,4.87
2022-10-28T01:36:12.169Z,5.02
2022-10-28T01:41:31.078Z,4.88
2022-10-28T01:46:51.971Z,4.71
2022-10-28T01:51:57.482Z,4.82
2022-10-28T01:57:01.776Z,4.70
2022-10-28T02:02:04.334Z,4.55
2022-10-28T02:07:06.609Z,4.58
2022-10-28T02:12:11.431Z,4.58
2022-10-28T02:17:36.756Z,4.50
2022-10-28T02:22:57.518Z,4.36
2022-10-28T02:28:22.013Z,4.43
2022-10-28T02:33:34.891Z,4.38
2022-10-28T02:38:44.664Z,4.37
2022-10-28T02:43:49.650Z,4.40
2022-10-28T02:48:57.507Z,4.39
2022-10-28T02:54:13.579Z,4.28
2022-10-28T02:59:15.853Z,4.13
2022-10-28T03:04:18.174Z,4.22
2022-10-28T03:09:20.499Z,4.28
2022-10-28T03:14:22.670Z,4.32
2022-10-28T03:19:25.264Z,4.28
2022-10-28T03:24:27.514Z,4.29
2022-10-28T03:29:29.596Z,4.15
2022-10-28T03:34:31.705Z,4.22
2022-10-28T03:39:33.967Z,4.23
2022-10-28T03:44:36.095Z,4.19
2022-10-28T03:49:38.181Z,4.12
2022-10-28T03:54:40.273Z,4.07
2022-10-28T03:59:42.263Z,4.08
2022-10-28T04:04:44.479Z,3.91
2022-10-28T04:09:49.969Z,3.86
2022-10-28T04:14:53.737Z,3.98
2022-10-28T04:19:56.025Z,3.92
2022-10-28T04:24:58.069Z,4.04
2022-10-28T04:30:00.158Z,4.09
2022-10-28T04:35:02.363Z,4.02
2022-10-28T04:40:05.655Z,4.01
2022-10-28T04:45:08.605Z,4.01
2022-10-28T04:50:10.646Z,3.94
2022-10-28T04:55:12.858Z,4.06
2022-10-28T05:00:15.128Z,3.53
2022-10-28T05:05:18.187Z,3.66
2022-10-28T05:10:20.465Z,3.67
2022-10-28T05:15:22.686Z,3.72
2022-10-28T05:20:25.130Z,3.90
2022-10-28T05:25:27.183Z,3.98
2022-10-28T05:30:29.469Z,4.13
2022-10-28T05:35:31.991Z,4.01
2022-10-28T05:40:34.625Z,4.20
2022-10-28T05:45:36.996Z,4.33
2022-10-28T05:50:39.015Z,4.19
2022-10-28T05:55:45.223Z,4.37
2022-10-28T06:00:49.974Z,4.37
2022-10-28T06:05:52.397Z,4.67
2022-10-28T06:10:53.721Z,4.97
2022-10-28T06:15:56.227Z,5.08
2022-10-28T06:20:58.911Z,5.32
2022-10-28T06:26:03.352Z,5.69
2022-10-28T06:31:10.585Z,5.90
2022-10-28T06:36:12.814Z,6.73
2022-10-28T06:41:14.878Z,10.88
2022-10-28T06:46:16.991Z,18.12
2022-10-28T06:51:20.696Z,21.74
2022-10-28T06:56:23.366Z,24.08
2022-10-28T07:01:25.520Z,24.56
2022-10-28T07:06:27.912Z,24.98
2022-10-28T07:11:30.305Z,24.74
2022-10-28T07:16:32.484Z,25.02
2022-10-28T07:21:34.848Z,24.55
2022-10-28T07:26:37.147Z,23.61
2022-10-28T07:31:39.205Z,23.41
2022-10-28T07:36:41.228Z,22.95
2022-10-28T07:41:43.450Z,23.38
2022-10-28T07:46:45.674Z,23.73
2022-10-28T07:51:50.975Z,23.89
2022-10-28T07:56:53.066Z,24.63
2022-10-28T08:01:55.522Z,25.13
2022-10-28T08:06:58.085Z,25.22
2022-10-28T08:12:00.456Z,25.43
2022-10-28T08:17:02.779Z,26.13
2022-10-28T08:22:05.075Z,26.13
2022-10-28T08:27:07.277Z,25.79
2022-10-28T08:32:09.971Z,27.13
2022-10-28T08:37:12.181Z,26.03
2022-10-28T08:42:30.289Z,26.21
2022-10-28T08:47:57.528Z,26.95
2022-10-28T08:58:39.560Z,26.51
2022-10-28T09:03:45.494Z,25.70
2022-10-28T09:08:49.798Z,24.18
2022-10-28T09:14:10.710Z,24.44
2022-10-28T09:19:28.777Z,23.58
2022-10-28T09:24:46.415Z,24.29
2022-10-28T09:30:07.045Z,25.32
2022-10-28T09:35:15.125Z,26.74
2022-10-28T09:40:22.561Z,26.99
2022-10-28T09:45:28.968Z,27.33
2022-10-28T09:50:33.189Z,25.59
2022-10-28T09:55:35.636Z,24.00
2022-10-28T10:00:37.910Z,24.15
2022-10-28T10:05:45.487Z,25.31
2022-10-28T10:10:56.228Z,24.75
2022-10-28T10:16:07.169Z,24.95
2022-10-28T10:21:09.388Z,24.66
2022-10-28T10:26:17.388Z,24.59
2022-10-28T10:31:27.642Z,26.06
2022-10-28T10:36:31.707Z,25.53
2022-10-28T10:41:42.481Z,25.02
2022-10-28T10:46:44.752Z,24.38
2022-10-28T10:51:57.336Z,23.69
2022-10-28T10:57:21.985Z,22.59
2022-10-28T11:02:39.994Z,22.50
2022-10-28T11:07:48.448Z,21.50
2022-10-28T11:13:01.059Z,20.90
2022-10-28T11:18:09.236Z,21.64
2022-10-28T11:23:35.383Z,22.02
2022-10-28T11:28:58.018Z,22.07
2022-10-28T11:34:27.624Z,21.40
2022-10-28T11:39:36.980Z,21.30
2022-10-28T11:45:09.328Z,21.26
2022-10-28T11:50:31.137Z,21.20
2022-10-28T11:55:48.141Z,21.22
2022-10-28T12:01:38.335Z,20.92
2022-10-28T12:06:43.252Z,20.54
2022-10-28T12:12:13.662Z,20.44
2022-10-28T12:17:30.784Z,20.57
2022-10-28T12:22:54.988Z,19.90
2022-10-28T12:28:23.737Z,20.31
2022-10-28T12:33:28.748Z,20.34
2022-10-28T12:38:39.042Z,20.03
2022-10-28T12:44:07.030Z,19.95
2022-10-28T12:49:51.109Z,20.01
2022-10-28T13:00:23.574Z,19.61
2022-10-28T13:05:31.728Z,19.92
2022-10-28T13:10:43.120Z,19.89
2022-10-28T13:16:13.627Z,19.82
2022-10-28T13:21:23.724Z,19.40
2022-10-28T13:26:34.192Z,19.26
2022-10-28T13:31:42.208Z,19.50
2022-10-28T13:36:47.131Z,19.35
2022-10-28T13:41:49.743Z,19.10
2022-10-28T13:47:16.572Z,19.02
2022-10-28T13:52:21.583Z,18.99
2022-10-28T13:57:36.916Z,18.87
2022-10-28T14:02:48.411Z,18.74
2022-10-28T14:07:55.539Z,18.66
2022-10-28T14:13:05.111Z,18.45
2022-10-28T14:23:42.978Z,18.27
2022-10-28T14:28:45.250Z,18.13
2022-10-28T14:33:56.714Z,17.89
2022-10-28T14:39:04.814Z,17.89
2022-10-28T14:44:25.797Z,17.95
2022-10-28T14:49:29.603Z,17.76
2022-10-28T14:54:44.046Z,17.54
2022-10-28T14:59:46.827Z,17.34
2022-10-28T15:05:01.884Z,16.98
2022-10-28T15:10:14.227Z,16.70
2022-10-28T15:15:24.714Z,16.26
2022-10-28T15:20:34.938Z,16.10
2022-10-28T15:25:37.231Z,15.75
2022-10-28T15:30:46.037Z,15.63
2022-10-28T15:35:49.188Z,15.12
2022-10-28T15:40:51.979Z,15.00
2022-10-28T15:45:54.808Z,14.46
2022-10-28T15:51:15.485Z,13.87
2022-10-28T15:56:28.236Z,13.27
2022-10-28T16:01:40.752Z,12.62
2022-10-28T16:06:43.374Z,12.41
2022-10-28T16:11:52.135Z,11.93
2022-10-28T16:16:54.458Z,11.73
2022-10-28T16:21:56.615Z,11.86
2022-10-28T16:27:21.069Z,11.63
2022-10-28T16:32:37.000Z,11.41
2022-10-28T16:37:44.525Z,11.28
2022-10-28T16:42:48.117Z,11.22
2022-10-28T16:47:50.246Z,10.91
2022-10-28T16:52:54.532Z,10.80
2022-10-28T16:57:57.005Z,10.67
2022-10-28T17:02:59.588Z,10.60
2022-10-28T17:08:05.874Z,10.57
2022-10-28T17:13:15.386Z,10.58
2022-10-28T17:18:17.639Z,10.50
2022-10-28T17:23:20.933Z,10.25
2022-10-28T17:28:23.026Z,10.00
2022-10-28T17:33:25.190Z,9.54
2022-10-28T17:38:27.209Z,9.42
2022-10-28T17:43:29.375Z,8.87
2022-10-28T17:48:31.653Z,8.74
2022-10-28T17:53:33.988Z,8.49
2022-10-28T17:58:36.167Z,8.62
2022-10-28T18:03:39.256Z,8.77
2022-10-28T18:08:43.277Z,8.68
2022-10-28T18:13:47.823Z,8.72
2022-10-28T18:18:51.764Z,8.51
2022-10-28T18:23:57.310Z,8.42
2022-10-28T18:29:04.064Z,8.30
2022-10-28T18:34:06.702Z,8.20
2022-10-28T18:39:09.339Z,8.11
2022-10-28T18:44:14.371Z,8.04
2022-10-28T18:49:16.799Z,7.85
2022-10-28T18:54:18.819Z,7.82
2022-10-28T18:59:20.837Z,7.66
2022-10-28T19:04:23.044Z,7.36
2022-10-28T19:09:25.129Z,7.23
2022-10-28T19:14:27.227Z,7.30
2022-10-28T19:19:29.382Z,7.17
2022-10-28T19:24:31.588Z,6.92
2022-10-28T19:29:33.800Z,6.83
2022-10-28T19:34:35.948Z,6.83
2022-10-28T19:39:38.418Z,6.70
2022-10-28T19:44:40.509Z,6.79
2022-10-28T19:49:44.518Z,6.87
2022-10-28T19:54:47.115Z,6.74
2022-10-28T19:59:49.311Z,6.86
2022-10-28T20:04:55.157Z,6.67
2022-10-28T20:15:06.016Z,6.23
2022-10-28T20:20:08.786Z,6.32
2022-10-28T20:25:10.830Z,6.02
2022-10-28T20:30:13.347Z,6.04
2022-10-28T20:35:15.613Z,6.03
2022-10-28T20:40:17.772Z,5.98
2022-10-28T20:45:19.802Z,6.06
2022-10-28T20:50:21.948Z,6.13
2022-10-28T20:55:24.369Z,5.90
2022-10-28T21:00:26.612Z,5.82
2022-10-28T21:05:31.073Z,5.89
2022-10-28T21:10:35.617Z,5.85
2022-10-28T21:15:39.898Z,5.70
2022-10-28T21:20:42.257Z,5.48
2022-10-28T21:25:51.785Z,5.47
2022-10-28T21:31:06.242Z,5.37
2022-10-28T21:36:15.464Z,5.11
2022-10-28T21:41:19.893Z,5.17
2022-10-28T21:46:24.536Z,5.09
2022-10-28T21:51:26.822Z,5.24
2022-10-28T21:56:28.980Z,5.26
2022-10-28T22:01:33.212Z,5.24
2022-10-28T22:06:35.661Z,5.29
2022-10-28T22:11:38.039Z,5.31
2022-10-28T22:16:40.804Z,5.18
2022-10-28T22:21:50.585Z,4.98
2022-10-28T22:26:55.271Z,4.76
2022-10-28T22:31:57.520Z,4.99
2022-10-28T22:36:59.609Z,5.02
2022-10-28T22:42:02.883Z,4.97
2022-10-28T22:47:05.074Z,5.08
2022-10-28T22:52:07.203Z,5.17
2022-10-28T22:57:09.353Z,4.97
2022-10-28T23:02:11.553Z,4.71
2022-10-28T23:07:14.135Z,4.76
2022-10-28T23:12:16.433Z,4.83
2022-10-28T23:17:18.471Z,4.87
2022-10-28T23:22:20.485Z,4.78
2022-10-28T23:27:22.815Z,4.78
2022-10-28T23:32:26.251Z,4.56
2022-10-28T23:37:28.679Z,4.37
2022-10-28T23:42:31.458Z,4.28
2022-10-28T23:47:33.501Z,4.37
2022-10-28T23:52:35.687Z,4.39
2022-10-28T23:57:37.905Z,4.37
